createdAt,value
2016-11-30T00:00:52.091Z,1023.1
2016-11-30T00:01:53.152Z,1023.1
2016-11-30T00:02:54.206Z,1023.1
2016-11-30T00:03:55.232Z,1023.1
2016-11-30T00:04:56.305Z,1023
2016-11-30T00:05:57.369Z,1023
2016-11-30T00:06:58.403Z,1023
2016-11-30T00:07:59.494Z,1023
2016-11-30T00:09:00.567Z,1023.1
2016-11-30T00:10:01.619Z,1023.1
2016-11-30T00:11:02.683Z,1023
2016-11-30T00:12:03.722Z,1023
2016-11-30T00:13:04.806Z,1023
2016-11-30T00:14:05.856Z,1023
2016-11-30T00:15:06.910Z,1023
2016-11-30T00:16:07.974Z,1023
2016-11-30T00:17:09.011Z,1022.9
2016-11-30T00:18:10.050Z,1023
2016-11-30T00:19:11.107Z,1023
2016-11-30T00:20:12.168Z,1022.9
2016-11-30T00:21:13.225Z,1022.9
2016-11-30T00:22:14.274Z,1022.9
2016-11-30T00:23:15.331Z,1022.9
2016-11-30T00:24:16.372Z,1022.9
2016-11-30T00:25:17.431Z,1022.9
2016-11-30T00:26:18.496Z,1022.9
2016-11-30T00:27:19.545Z,1023
2016-11-30T00:28:20.603Z,1022.9
2016-11-30T00:29:21.647Z,1023
2016-11-30T00:30:22.731Z,1022.9
2016-11-30T00:31:23.777Z,1022.9
2016-11-30T00:32:24.836Z,1022.9
2016-11-30T00:33:25.874Z,1022.8
2016-11-30T00:34:26.934Z,1022.8
2016-11-30T00:35:27.980Z,1022.7
2016-11-30T00:36:29.032Z,1022.7
2016-11-30T00:37:30.106Z,1022.7
2016-11-30T00:38:31.250Z,1022.7
2016-11-30T00:39:32.300Z,1022.7
2016-11-30T00:40:33.357Z,1022.7
2016-11-30T00:41:34.406Z,1022.7
2016-11-30T00:42:35.476Z,1022.7
2016-11-30T00:43:36.534Z,1022.6
2016-11-30T00:44:37.580Z,1022.6
2016-11-30T00:45:38.633Z,1022.6
2016-11-30T00:46:39.681Z,1022.6
2016-11-30T00:47:40.729Z,1022.7
2016-11-30T00:48:41.786Z,1022.6
2016-11-30T00:49:42.848Z,1022.6
2016-11-30T00:50:43.927Z,1022.5
2016-11-30T00:51:44.985Z,1022.6
2016-11-30T00:52:46.037Z,1022.6
2016-11-30T00:53:47.089Z,1022.4
2016-11-30T00:54:48.147Z,1022.5
2016-11-30T00:55:49.209Z,1022.4
2016-11-30T00:56:50.261Z,1022.5
2016-11-30T00:57:51.326Z,1022.5
2016-11-30T00:58:52.375Z,1022.4
2016-11-30T00:59:53.447Z,1022.5
2016-11-30T01:00:54.511Z,1022.4
2016-11-30T01:01:55.563Z,1022.4
2016-11-30T01:02:56.616Z,1022.5
2016-11-30T01:03:57.676Z,1022.4
2016-11-30T01:04:58.722Z,1022.4
2016-11-30T01:05:59.792Z,1022.4
2016-11-30T01:07:00.847Z,1022.3
2016-11-30T01:08:01.899Z,1022.3
2016-11-30T01:09:03.082Z,1022.3
2016-11-30T01:10:04.122Z,1022.3
2016-11-30T01:11:05.180Z,1022.3
2016-11-30T01:12:06.245Z,1022.3
2016-11-30T01:13:07.286Z,1022.3
2016-11-30T01:14:08.348Z,1022.3
2016-11-30T01:15:09.413Z,1022.2
2016-11-30T01:16:10.450Z,1022.2
2016-11-30T01:17:11.508Z,1022.2
2016-11-30T01:18:12.557Z,1022.2
2016-11-30T01:19:13.613Z,1022.2
2016-11-30T01:20:14.675Z,1022.2
2016-11-30T01:21:15.715Z,1022.3
2016-11-30T01:22:16.770Z,1022.2
2016-11-30T01:23:17.821Z,1022.2
2016-11-30T01:24:18.888Z,1022.3
2016-11-30T01:25:19.963Z,1022.3
2016-11-30T01:26:21.014Z,1022.4
2016-11-30T01:27:22.074Z,1022.3
2016-11-30T01:28:23.118Z,1022.2
2016-11-30T01:29:24.184Z,1022.2
2016-11-30T01:30:25.232Z,1022.1
2016-11-30T01:31:26.269Z,1022.1
2016-11-30T01:32:27.360Z,1022.1
2016-11-30T01:33:28.426Z,1022.1
2016-11-30T01:34:29.482Z,1022.2
2016-11-30T01:35:30.538Z,1022.1
2016-11-30T01:36:31.597Z,1022.1
2016-11-30T01:37:32.660Z,1022
2016-11-30T01:38:33.707Z,1022.1
2016-11-30T01:39:34.865Z,1022
2016-11-30T01:40:35.934Z,1022
2016-11-30T01:41:36.993Z,1022
2016-11-30T01:42:38.042Z,1021.9
2016-11-30T01:43:39.087Z,1022
2016-11-30T01:44:40.146Z,1022
2016-11-30T01:45:41.206Z,1021.9
2016-11-30T01:46:42.262Z,1022
2016-11-30T01:47:43.318Z,1021.9
2016-11-30T01:48:44.410Z,1021.9
2016-11-30T01:49:45.466Z,1021.9
2016-11-30T01:50:46.518Z,1021.9
2016-11-30T01:51:47.562Z,1021.9
2016-11-30T01:52:48.604Z,1021.9
2016-11-30T01:53:49.659Z,1021.9
2016-11-30T01:54:50.704Z,1021.8
2016-11-30T01:55:51.762Z,1021.9
2016-11-30T01:56:52.825Z,1021.8
2016-11-30T01:57:53.872Z,1021.9
2016-11-30T01:58:54.921Z,1021.8
2016-11-30T01:59:55.985Z,1021.8
2016-11-30T02:00:57.045Z,1021.8
2016-11-30T02:01:58.094Z,1021.8
2016-11-30T02:02:59.138Z,1021.9
2016-11-30T02:04:00.193Z,1021.8
2016-11-30T02:05:01.255Z,1021.8
2016-11-30T02:06:02.303Z,1021.8
2016-11-30T02:07:03.356Z,1021.8
2016-11-30T02:08:04.423Z,1021.8
2016-11-30T02:09:05.477Z,1021.8
2016-11-30T02:10:06.640Z,1021.7
2016-11-30T02:11:07.707Z,1021.8
2016-11-30T02:12:08.752Z,1021.7
2016-11-30T02:13:09.801Z,1021.8
2016-11-30T02:14:10.862Z,1021.7
2016-11-30T02:15:11.910Z,1021.7
2016-11-30T02:16:12.952Z,1021.7
2016-11-30T02:17:14.008Z,1021.8
2016-11-30T02:18:15.061Z,1021.7
2016-11-30T02:19:16.106Z,1021.7
2016-11-30T02:20:17.159Z,1021.7
2016-11-30T02:21:18.202Z,1021.7
2016-11-30T02:22:19.256Z,1021.6
2016-11-30T02:23:20.303Z,1021.7
2016-11-30T02:24:21.348Z,1021.6
2016-11-30T02:25:22.396Z,1021.6
2016-11-30T02:26:23.440Z,1021.5
2016-11-30T02:27:24.493Z,1021.5
2016-11-30T02:28:25.550Z,1021.6
2016-11-30T02:29:26.598Z,1021.5
2016-11-30T02:30:27.649Z,1021.5
2016-11-30T02:31:28.720Z,1021.5
2016-11-30T02:32:29.777Z,1021.4
2016-11-30T02:33:30.824Z,1021.5
2016-11-30T02:34:31.892Z,1021.5
2016-11-30T02:35:32.944Z,1021.5
2016-11-30T02:36:33.987Z,1021.6
2016-11-30T02:37:35.044Z,1021.5
2016-11-30T02:38:36.076Z,1021.5
2016-11-30T02:39:37.152Z,1021.5
2016-11-30T02:40:38.223Z,1021.5
2016-11-30T02:41:39.262Z,1021.5
2016-11-30T02:42:40.335Z,1021.5
2016-11-30T02:43:41.368Z,1021.4
2016-11-30T02:44:42.445Z,1021.5
2016-11-30T02:45:43.508Z,1021.5
2016-11-30T02:46:44.561Z,1021.5
2016-11-30T02:47:45.959Z,1021.5
2016-11-30T02:48:47.019Z,1021.5
2016-11-30T02:49:48.065Z,1021.5
2016-11-30T02:50:49.127Z,1021.4
2016-11-30T02:51:50.185Z,1021.4
2016-11-30T02:52:51.234Z,1021.4
2016-11-30T02:53:52.291Z,1021.2
2016-11-30T02:54:53.343Z,1021.2
2016-11-30T02:55:54.598Z,1021.2
2016-11-30T02:56:55.663Z,1021.2
2016-11-30T02:57:56.723Z,1021.2
2016-11-30T02:58:57.766Z,1021.1
2016-11-30T02:59:58.816Z,1021.1
2016-11-30T03:00:59.870Z,1021
2016-11-30T03:02:00.958Z,1021
2016-11-30T03:03:02.026Z,1021.1
2016-11-30T03:04:03.088Z,1020.9
2016-11-30T03:05:04.149Z,1021
2016-11-30T03:06:05.199Z,1020.9
2016-11-30T03:07:06.255Z,1020.9
2016-11-30T03:08:07.303Z,1020.8
2016-11-30T03:09:08.365Z,1021
2016-11-30T03:10:09.420Z,1020.8
2016-11-30T03:11:10.475Z,1020.9
2016-11-30T03:12:11.536Z,1020.8
2016-11-30T03:13:12.582Z,1020.8
2016-11-30T03:14:13.632Z,1020.9
2016-11-30T03:15:14.688Z,1020.9
2016-11-30T03:16:15.729Z,1020.9
2016-11-30T03:17:16.786Z,1020.9
2016-11-30T03:18:17.836Z,1020.9
2016-11-30T03:19:18.872Z,1020.8
2016-11-30T03:20:19.923Z,1020.8
2016-11-30T03:21:20.987Z,1020.8
2016-11-30T03:22:22.047Z,1020.8
2016-11-30T03:23:23.113Z,1020.8
2016-11-30T03:24:24.170Z,1020.8
2016-11-30T03:25:25.222Z,1020.9
2016-11-30T03:26:26.272Z,1020.8
2016-11-30T03:27:27.322Z,1020.9
2016-11-30T03:28:28.385Z,1020.9
2016-11-30T03:29:29.444Z,1020.9
2016-11-30T03:30:30.487Z,1020.9
2016-11-30T03:31:31.553Z,1020.9
2016-11-30T03:32:32.596Z,1020.9
2016-11-30T03:33:33.640Z,1020.9
2016-11-30T03:34:34.694Z,1020.9
2016-11-30T03:35:35.761Z,1020.9
2016-11-30T03:36:36.809Z,1020.9
2016-11-30T03:37:37.856Z,1020.9
2016-11-30T03:38:38.908Z,1021
2016-11-30T03:39:39.939Z,1020.9
2016-11-30T03:40:41.007Z,1020.9
2016-11-30T03:41:42.160Z,1020.8
2016-11-30T03:42:43.214Z,1020.8
2016-11-30T03:43:44.285Z,1020.8
2016-11-30T03:44:45.322Z,1020.9
2016-11-30T03:45:46.365Z,1020.9
2016-11-30T03:46:47.432Z,1020.9
2016-11-30T03:47:48.475Z,1020.8
2016-11-30T03:48:49.547Z,1020.7
2016-11-30T03:49:50.611Z,1020.7
2016-11-30T03:50:51.647Z,1020.7
2016-11-30T03:51:52.698Z,1020.7
2016-11-30T03:52:53.765Z,1020.7
2016-11-30T03:53:54.811Z,1020.6
2016-11-30T03:54:55.857Z,1020.5
2016-11-30T03:55:56.914Z,1020.5
2016-11-30T03:56:57.956Z,1020.5
2016-11-30T03:57:59.016Z,1020.5
2016-11-30T03:59:00.066Z,1020.4
2016-11-30T04:00:01.119Z,1020.4
2016-11-30T04:01:02.172Z,1020.3
2016-11-30T04:02:03.217Z,1020.4
2016-11-30T04:03:04.260Z,1020.4
2016-11-30T04:04:05.321Z,1020.5
2016-11-30T04:05:06.361Z,1020.4
2016-11-30T04:06:07.417Z,1020.6
2016-11-30T04:07:08.481Z,1020.6
2016-11-30T04:08:09.523Z,1020.6
2016-11-30T04:09:10.934Z,1020.7
2016-11-30T04:10:11.992Z,1020.7
2016-11-30T04:11:13.051Z,1020.8
2016-11-30T04:12:14.212Z,1020.8
2016-11-30T04:13:15.267Z,1020.7
2016-11-30T04:14:16.307Z,1020.8
2016-11-30T04:15:17.363Z,1020.8
2016-11-30T04:16:18.418Z,1020.8
2016-11-30T04:17:19.470Z,1020.8
2016-11-30T04:18:20.539Z,1020.8
2016-11-30T04:19:21.588Z,1020.8
2016-11-30T04:20:22.645Z,1020.8
2016-11-30T04:21:23.695Z,1020.8
2016-11-30T04:22:24.745Z,1020.7
2016-11-30T04:23:25.799Z,1020.8
2016-11-30T04:24:26.865Z,1020.7
2016-11-30T04:25:27.913Z,1020.7
2016-11-30T04:26:28.960Z,1020.8
2016-11-30T04:27:30.016Z,1020.8
2016-11-30T04:28:31.059Z,1020.7
2016-11-30T04:29:32.125Z,1020.7
2016-11-30T04:30:33.188Z,1020.7
2016-11-30T04:31:34.235Z,1020.6
2016-11-30T04:32:35.284Z,1020.7
2016-11-30T04:33:36.350Z,1020.6
2016-11-30T04:34:37.397Z,1020.6
2016-11-30T04:35:38.439Z,1020.5
2016-11-30T04:36:39.507Z,1020.5
2016-11-30T04:37:40.560Z,1020.6
2016-11-30T04:38:41.601Z,1020.6
2016-11-30T04:39:42.649Z,1020.5
2016-11-30T04:40:43.686Z,1020.5
2016-11-30T04:41:44.750Z,1020.5
2016-11-30T04:42:45.808Z,1020.5
2016-11-30T04:43:46.843Z,1020.5
2016-11-30T04:44:47.916Z,1020.4
2016-11-30T04:45:48.956Z,1020.4
2016-11-30T04:46:50.005Z,1020.3
2016-11-30T04:47:51.071Z,1020.4
2016-11-30T04:48:52.110Z,1020.4
2016-11-30T04:49:53.212Z,1020.4
2016-11-30T04:50:54.279Z,1020.4
2016-11-30T04:51:55.340Z,1020.4
2016-11-30T04:52:56.400Z,1020.4
2016-11-30T04:53:57.446Z,1020.5
2016-11-30T04:54:58.503Z,1020.4
2016-11-30T04:55:59.568Z,1020.4
2016-11-30T04:57:00.959Z,1020.3
2016-11-30T04:58:02.007Z,1020.3
2016-11-30T04:59:03.414Z,1020.2
2016-11-30T05:00:04.472Z,1020.3
2016-11-30T05:01:05.519Z,1020.2
2016-11-30T05:02:06.582Z,1020.2
2016-11-30T05:03:07.621Z,1020.2
2016-11-30T05:04:08.659Z,1020
2016-11-30T05:05:09.712Z,1020.1
2016-11-30T05:06:10.764Z,1020.1
2016-11-30T05:07:11.816Z,1020.1
2016-11-30T05:08:12.875Z,1020
2016-11-30T05:09:13.925Z,1020.1
2016-11-30T05:10:14.967Z,1020.1
2016-11-30T05:11:16.024Z,1020.1
2016-11-30T05:12:17.074Z,1020.2
2016-11-30T05:13:18.164Z,1020.2
2016-11-30T05:14:19.226Z,1020.2
2016-11-30T05:15:20.263Z,1020.2
2016-11-30T05:16:21.310Z,1020.2
2016-11-30T05:17:22.362Z,1020.2
2016-11-30T05:18:23.408Z,1020.2
2016-11-30T05:19:24.466Z,1020.1
2016-11-30T05:20:25.521Z,1020.1
2016-11-30T05:21:26.569Z,1020.2
2016-11-30T05:22:27.619Z,1020.1
2016-11-30T05:23:28.678Z,1020.1
2016-11-30T05:24:29.736Z,1020.2
2016-11-30T05:25:30.793Z,1020.1
2016-11-30T05:26:31.846Z,1020.1
2016-11-30T05:27:32.910Z,1020.1
2016-11-30T05:28:33.970Z,1020.1
2016-11-30T05:29:35.008Z,1020
2016-11-30T05:30:36.061Z,1020
2016-11-30T05:31:37.129Z,1020.1
2016-11-30T05:32:38.172Z,1020
2016-11-30T05:33:39.235Z,1020.1
2016-11-30T05:34:40.279Z,1020
2016-11-30T05:35:41.311Z,1020
2016-11-30T05:36:42.369Z,1020
2016-11-30T05:37:43.441Z,1020
2016-11-30T05:38:44.510Z,1019.9
2016-11-30T05:39:45.548Z,1020
2016-11-30T05:40:46.611Z,1020
2016-11-30T05:41:47.704Z,1019.9
2016-11-30T05:42:48.747Z,1019.9
2016-11-30T05:43:49.801Z,1019.9
2016-11-30T05:44:50.863Z,1019.9
2016-11-30T05:45:51.924Z,1020
2016-11-30T05:46:52.962Z,1019.9
2016-11-30T05:47:54.010Z,1019.9
2016-11-30T05:48:55.087Z,1019.9
2016-11-30T05:49:56.129Z,1020
2016-11-30T05:50:57.195Z,1019.9
2016-11-30T05:51:58.254Z,1019.9
2016-11-30T05:52:59.283Z,1019.9
2016-11-30T05:54:00.338Z,1019.9
2016-11-30T05:55:01.393Z,1019.9
2016-11-30T05:56:02.438Z,1019.9
2016-11-30T05:57:03.501Z,1019.9
2016-11-30T05:58:04.547Z,1019.9
2016-11-30T05:59:05.604Z,1020
2016-11-30T06:00:06.659Z,1019.9
2016-11-30T06:01:07.697Z,1019.8
2016-11-30T06:02:08.761Z,1019.7
2016-11-30T06:03:09.814Z,1019.8
2016-11-30T06:04:10.895Z,1019.7
2016-11-30T06:05:11.942Z,1019.7
2016-11-30T06:06:12.977Z,1019.7
2016-11-30T06:07:14.030Z,1019.8
2016-11-30T06:08:15.074Z,1019.7
2016-11-30T06:09:16.117Z,1019.7
2016-11-30T06:10:17.168Z,1019.8
2016-11-30T06:11:18.222Z,1019.7
2016-11-30T06:12:19.299Z,1019.9
2016-11-30T06:13:20.356Z,1019.7
2016-11-30T06:14:21.421Z,1019.7
2016-11-30T06:15:22.469Z,1019.8
2016-11-30T06:16:23.507Z,1019.7
2016-11-30T06:17:24.577Z,1019.7
2016-11-30T06:18:25.645Z,1019.6
2016-11-30T06:19:26.682Z,1019.6
2016-11-30T06:20:27.721Z,1019.7
2016-11-30T06:21:28.780Z,1019.6
2016-11-30T06:22:29.827Z,1019.7
2016-11-30T06:23:30.882Z,1019.7
2016-11-30T06:24:31.940Z,1019.7
2016-11-30T06:25:32.977Z,1019.7
2016-11-30T06:26:34.049Z,1019.7
2016-11-30T06:27:35.080Z,1019.7
2016-11-30T06:28:36.124Z,1019.7
2016-11-30T06:29:37.195Z,1019.6
2016-11-30T06:30:38.232Z,1019.6
2016-11-30T06:31:39.297Z,1019.6
2016-11-30T06:32:40.363Z,1019.7
2016-11-30T06:33:41.403Z,1019.6
2016-11-30T06:34:42.452Z,1019.5
2016-11-30T06:35:43.504Z,1019.5
2016-11-30T06:36:44.568Z,1019.5
2016-11-30T06:37:45.625Z,1019.5
2016-11-30T06:38:46.663Z,1019.6
2016-11-30T06:39:47.712Z,1019.5
2016-11-30T06:40:48.754Z,1019.5
2016-11-30T06:41:49.809Z,1019.5
2016-11-30T06:42:50.849Z,1019.6
2016-11-30T06:43:51.899Z,1019.6
2016-11-30T06:44:52.967Z,1019.5
2016-11-30T06:45:54.019Z,1019.6
2016-11-30T06:46:55.065Z,1019.6
2016-11-30T06:47:56.124Z,1019.5
2016-11-30T06:48:57.167Z,1019.6
2016-11-30T06:49:58.221Z,1019.5
2016-11-30T06:50:59.286Z,1019.6
2016-11-30T06:52:00.341Z,1019.5
2016-11-30T06:53:01.391Z,1019.6
2016-11-30T06:54:02.449Z,1019.6
2016-11-30T06:55:03.502Z,1019.6
2016-11-30T06:56:04.564Z,1019.6
2016-11-30T06:57:05.604Z,1019.6
2016-11-30T06:58:06.647Z,1019.6
2016-11-30T06:59:07.711Z,1019.5
2016-11-30T07:00:08.770Z,1019.5
2016-11-30T07:01:09.812Z,1019.5
2016-11-30T07:02:10.860Z,1019.5
2016-11-30T07:03:11.918Z,1019.6
2016-11-30T07:04:12.972Z,1019.5
2016-11-30T07:05:14.033Z,1019.5
2016-11-30T07:06:15.091Z,1019.5
2016-11-30T07:07:16.145Z,1019.4
2016-11-30T07:08:17.198Z,1019.5
2016-11-30T07:09:18.245Z,1019.5
2016-11-30T07:10:19.299Z,1019.5
2016-11-30T07:11:20.357Z,1019.5
2016-11-30T07:12:21.402Z,1019.5
2016-11-30T07:13:22.459Z,1019.5
2016-11-30T07:14:23.508Z,1019.5
2016-11-30T07:15:24.565Z,1019.4
2016-11-30T07:16:25.612Z,1019.5
2016-11-30T07:17:26.659Z,1019.5
2016-11-30T07:18:27.720Z,1019.5
2016-11-30T07:19:28.771Z,1019.7
2016-11-30T07:20:29.833Z,1019.7
2016-11-30T07:21:30.908Z,1019.7
2016-11-30T07:22:31.954Z,1019.7
2016-11-30T07:23:33.005Z,1019.7
2016-11-30T07:24:34.073Z,1019.7
2016-11-30T07:25:35.124Z,1019.8
2016-11-30T07:26:36.166Z,1019.7
2016-11-30T07:27:37.236Z,1019.7
2016-11-30T07:28:38.279Z,1019.8
2016-11-30T07:29:39.317Z,1019.8
2016-11-30T07:30:40.384Z,1019.8
2016-11-30T07:31:41.426Z,1019.8
2016-11-30T07:32:42.495Z,1019.8
2016-11-30T07:33:43.564Z,1019.7
2016-11-30T07:34:44.600Z,1019.8
2016-11-30T07:35:45.670Z,1019.8
2016-11-30T07:36:46.705Z,1019.8
2016-11-30T07:37:47.744Z,1019.8
2016-11-30T07:38:48.810Z,1019.8
2016-11-30T07:39:49.865Z,1019.8
2016-11-30T07:40:51.426Z,1019.7
2016-11-30T07:41:52.474Z,1019.7
2016-11-30T07:42:53.531Z,1019.8
2016-11-30T07:43:54.591Z,1019.7
2016-11-30T07:44:55.642Z,1019.7
2016-11-30T07:45:56.706Z,1019.7
2016-11-30T07:46:57.761Z,1019.6
2016-11-30T07:47:58.815Z,1019.6
2016-11-30T07:48:59.877Z,1019.7
2016-11-30T07:50:00.922Z,1019.7
2016-11-30T07:51:02.026Z,1019.6
2016-11-30T07:52:03.105Z,1019.6
2016-11-30T07:53:04.153Z,1019.6
2016-11-30T07:54:05.226Z,1019.6
2016-11-30T07:55:06.295Z,1019.6
2016-11-30T07:56:07.350Z,1019.6
2016-11-30T07:57:08.398Z,1019.6
2016-11-30T07:58:09.475Z,1019.6
2016-11-30T07:59:10.523Z,1019.6
2016-11-30T08:00:11.584Z,1019.7
2016-11-30T08:01:12.648Z,1019.6
2016-11-30T08:02:13.698Z,1019.6
2016-11-30T08:03:14.755Z,1019.5
2016-11-30T08:04:15.810Z,1019.6
2016-11-30T08:05:16.859Z,1019.5
2016-11-30T08:06:17.928Z,1019.5
2016-11-30T08:07:18.990Z,1019.5
2016-11-30T08:08:20.040Z,1019.4
2016-11-30T08:09:21.111Z,1019.3
2016-11-30T08:10:22.167Z,1019.3
2016-11-30T08:11:23.218Z,1019.3
2016-11-30T08:12:24.281Z,1019.3
2016-11-30T08:13:25.336Z,1019.3
2016-11-30T08:14:26.396Z,1019.4
2016-11-30T08:15:27.435Z,1019.3
2016-11-30T08:16:28.499Z,1019.4
2016-11-30T08:17:29.558Z,1019.4
2016-11-30T08:18:30.606Z,1019.4
2016-11-30T08:19:31.665Z,1019.3
2016-11-30T08:20:33.085Z,1019.4
2016-11-30T08:21:34.147Z,1019.4
2016-11-30T08:22:35.209Z,1019.3
2016-11-30T08:23:36.264Z,1019.3
2016-11-30T08:24:37.310Z,1019.3
2016-11-30T08:25:38.366Z,1019.3
2016-11-30T08:26:39.428Z,1019.3
2016-11-30T08:27:40.485Z,1019.3
2016-11-30T08:28:41.894Z,1019.3
2016-11-30T08:29:42.925Z,1019.3
2016-11-30T08:30:44.003Z,1019.2
2016-11-30T08:31:45.080Z,1019.2
2016-11-30T08:32:46.125Z,1019.2
2016-11-30T08:33:47.225Z,1019.2
2016-11-30T08:34:48.292Z,1019.2
2016-11-30T08:35:49.330Z,1019.2
2016-11-30T08:36:50.397Z,1019.2
2016-11-30T08:37:51.424Z,1019.3
2016-11-30T08:38:52.462Z,1019.3
2016-11-30T08:39:53.524Z,1019.2
2016-11-30T08:40:54.572Z,1019.2
2016-11-30T08:41:55.633Z,1019.3
2016-11-30T08:42:56.694Z,1019.2
2016-11-30T08:43:57.748Z,1019.2
2016-11-30T08:44:58.806Z,1019.2
2016-11-30T08:45:59.862Z,1019.2
2016-11-30T08:47:00.915Z,1019.3
2016-11-30T08:48:01.973Z,1019.3
2016-11-30T08:49:03.021Z,1019.2
2016-11-30T08:50:04.078Z,1019.3
2016-11-30T08:51:05.125Z,1019.3
2016-11-30T08:52:06.170Z,1019.2
2016-11-30T08:53:07.231Z,1019.3
2016-11-30T08:54:08.285Z,1019.4
2016-11-30T08:55:09.343Z,1019.4
2016-11-30T08:56:10.398Z,1019.3
2016-11-30T08:57:11.433Z,1019.4
2016-11-30T08:58:12.519Z,1019.3
2016-11-30T08:59:13.912Z,1019.3
2016-11-30T09:00:14.953Z,1019.3
2016-11-30T09:01:16.022Z,1019.3
2016-11-30T09:02:17.087Z,1019.3
2016-11-30T09:03:18.133Z,1019.4
2016-11-30T09:04:19.188Z,1019.3
2016-11-30T09:05:20.246Z,1019.4
2016-11-30T09:06:21.294Z,1019.3
2016-11-30T09:07:22.371Z,1019.2
2016-11-30T09:08:23.424Z,1019.3
2016-11-30T09:09:24.477Z,1019.3
2016-11-30T09:10:25.536Z,1019.3
2016-11-30T09:11:26.580Z,1019.3
2016-11-30T09:12:27.627Z,1019.3
2016-11-30T09:13:28.694Z,1019.2
2016-11-30T09:14:29.751Z,1019.2
2016-11-30T09:15:30.804Z,1019.3
2016-11-30T09:16:31.850Z,1019.3
2016-11-30T09:17:32.940Z,1019.3
2016-11-30T09:18:33.980Z,1019.3
2016-11-30T09:19:35.028Z,1019.3
2016-11-30T09:20:36.100Z,1019.3
2016-11-30T09:21:37.162Z,1019.3
2016-11-30T09:22:38.220Z,1019.4
2016-11-30T09:23:39.287Z,1019.4
2016-11-30T09:24:40.334Z,1019.3
2016-11-30T09:25:41.379Z,1019.4
2016-11-30T09:26:42.437Z,1019.3
2016-11-30T09:27:43.488Z,1019.2
2016-11-30T09:28:44.521Z,1019.2
2016-11-30T09:29:45.564Z,1019.2
2016-11-30T09:30:46.602Z,1019.1
2016-11-30T09:31:47.658Z,1019.2
2016-11-30T09:32:48.715Z,1019.2
2016-11-30T09:33:49.754Z,1019.2
2016-11-30T09:34:50.828Z,1019.2
2016-11-30T09:35:51.891Z,1019.3
2016-11-30T09:36:52.924Z,1019.2
2016-11-30T09:37:53.987Z,1019.2
2016-11-30T09:38:55.025Z,1019.2
2016-11-30T09:39:56.069Z,1019.3
2016-11-30T09:40:57.132Z,1019.3
2016-11-30T09:41:58.215Z,1019.2
2016-11-30T09:42:59.278Z,1019.3
2016-11-30T09:44:00.348Z,1019.3
2016-11-30T09:45:01.425Z,1019.3
2016-11-30T09:46:02.494Z,1019.2
2016-11-30T09:47:03.534Z,1019.3
2016-11-30T09:48:04.578Z,1019.3
2016-11-30T09:49:05.641Z,1019.3
2016-11-30T09:50:06.701Z,1019.3
2016-11-30T09:51:07.755Z,1019.3
2016-11-30T09:52:08.804Z,1019.2
2016-11-30T09:53:09.848Z,1019.2
2016-11-30T09:54:10.914Z,1019.2
2016-11-30T09:55:11.970Z,1019.2
2016-11-30T09:56:13.027Z,1019.2
2016-11-30T09:57:14.088Z,1019.2
2016-11-30T09:58:15.137Z,1019.2
2016-11-30T09:59:16.200Z,1019.2
2016-11-30T10:00:17.257Z,1019.1
2016-11-30T10:01:18.317Z,1019.2
2016-11-30T10:02:19.370Z,1019.2
2016-11-30T10:03:20.452Z,1019.1
2016-11-30T10:04:21.507Z,1019.2
2016-11-30T10:05:22.557Z,1019.1
2016-11-30T10:06:23.937Z,1019.1
2016-11-30T10:07:24.993Z,1019.1
2016-11-30T10:08:26.059Z,1019.2
2016-11-30T10:09:27.121Z,1019.1
2016-11-30T10:10:28.168Z,1019.1
2016-11-30T10:11:29.225Z,1019.1
2016-11-30T10:12:30.271Z,1019.1
2016-11-30T10:13:31.324Z,1019.1
2016-11-30T10:14:32.378Z,1019
2016-11-30T10:15:33.442Z,1019.1
2016-11-30T10:16:34.520Z,1019
2016-11-30T10:17:35.569Z,1019.1
2016-11-30T10:18:36.632Z,1019
2016-11-30T10:19:37.690Z,1019
2016-11-30T10:20:38.744Z,1019
2016-11-30T10:21:39.802Z,1018.9
2016-11-30T10:22:40.878Z,1019
2016-11-30T10:23:41.912Z,1019
2016-11-30T10:24:42.948Z,1019
2016-11-30T10:25:44.013Z,1019
2016-11-30T10:26:45.044Z,1018.9
2016-11-30T10:27:46.374Z,1018.9
2016-11-30T10:28:47.431Z,1018.9
2016-11-30T10:29:48.472Z,1018.9
2016-11-30T10:30:49.537Z,1018.8
2016-11-30T10:31:50.574Z,1018.9
2016-11-30T10:32:51.613Z,1018.9
2016-11-30T10:33:52.680Z,1019
2016-11-30T10:34:53.715Z,1018.9
2016-11-30T10:35:54.785Z,1018.9
2016-11-30T10:36:55.857Z,1019
2016-11-30T10:37:56.896Z,1019
2016-11-30T10:38:57.963Z,1018.9
2016-11-30T10:39:59.019Z,1018.9
2016-11-30T10:41:00.066Z,1018.9
2016-11-30T10:42:01.127Z,1018.9
2016-11-30T10:43:02.177Z,1018.9
2016-11-30T10:44:03.269Z,1018.9
2016-11-30T10:45:04.320Z,1018.9
2016-11-30T10:46:05.388Z,1018.9
2016-11-30T10:47:06.427Z,1018.8
2016-11-30T10:48:07.487Z,1018.8
2016-11-30T10:49:08.571Z,1018.8
2016-11-30T10:50:09.630Z,1018.7
2016-11-30T10:51:10.687Z,1018.7
2016-11-30T10:52:11.739Z,1018.7
2016-11-30T10:53:12.794Z,1018.8
2016-11-30T10:54:13.856Z,1018.7
2016-11-30T10:55:14.908Z,1018.7
2016-11-30T10:56:15.942Z,1018.7
2016-11-30T10:57:16.985Z,1018.7
2016-11-30T10:58:18.046Z,1018.7
2016-11-30T10:59:19.093Z,1018.7
2016-11-30T11:00:20.145Z,1018.6
2016-11-30T11:01:21.196Z,1018.7
2016-11-30T11:02:22.249Z,1018.6
2016-11-30T11:03:23.296Z,1018.7
2016-11-30T11:04:24.355Z,1018.7
2016-11-30T11:05:25.403Z,1018.7
2016-11-30T11:06:26.452Z,1018.7
2016-11-30T11:07:27.517Z,1018.7
2016-11-30T11:08:28.572Z,1018.7
2016-11-30T11:09:29.632Z,1018.7
2016-11-30T11:10:30.692Z,1018.8
2016-11-30T11:11:31.743Z,1018.7
2016-11-30T11:12:32.804Z,1018.8
2016-11-30T11:13:33.856Z,1018.7
2016-11-30T11:14:34.907Z,1018.7
2016-11-30T11:15:35.965Z,1018.6
2016-11-30T11:16:37.032Z,1018.6
2016-11-30T11:17:38.081Z,1018.5
2016-11-30T11:18:39.143Z,1018.5
2016-11-30T11:19:40.208Z,1018.5
2016-11-30T11:20:41.251Z,1018.3
2016-11-30T11:21:42.669Z,1018.4
2016-11-30T11:22:43.734Z,1018.4
2016-11-30T11:23:44.785Z,1018.4
2016-11-30T11:24:45.840Z,1018.4
2016-11-30T11:25:46.892Z,1018.4
2016-11-30T11:26:47.936Z,1018.3
2016-11-30T11:27:49.006Z,1018.4
2016-11-30T11:28:50.076Z,1018.4
2016-11-30T11:29:51.144Z,1018.4
2016-11-30T11:30:52.181Z,1018.4
2016-11-30T11:31:53.223Z,1018.3
2016-11-30T11:32:54.277Z,1018.4
2016-11-30T11:33:55.328Z,1018.4
2016-11-30T11:34:56.399Z,1018.4
2016-11-30T11:35:57.446Z,1018.5
2016-11-30T11:36:58.506Z,1018.3
2016-11-30T11:37:59.568Z,1018.3
2016-11-30T11:39:00.603Z,1018.3
2016-11-30T11:40:01.674Z,1018.2
2016-11-30T11:41:02.718Z,1018.2
2016-11-30T11:42:03.762Z,1018.3
2016-11-30T11:43:04.826Z,1018.3
2016-11-30T11:44:05.883Z,1018.3
2016-11-30T11:45:06.931Z,1018.3
2016-11-30T11:46:07.969Z,1018.3
2016-11-30T11:47:09.030Z,1018.2
2016-11-30T11:48:10.077Z,1018.3
2016-11-30T11:49:11.131Z,1018.3
2016-11-30T11:50:12.195Z,1018.3
2016-11-30T11:51:13.261Z,1018.2
2016-11-30T11:52:14.316Z,1018.2
2016-11-30T11:53:15.367Z,1018.2
2016-11-30T11:54:16.415Z,1018.2
2016-11-30T11:55:17.471Z,1018.2
2016-11-30T11:56:18.522Z,1018.1
2016-11-30T11:57:19.578Z,1018.1
2016-11-30T11:58:20.632Z,1018.1
2016-11-30T11:59:21.677Z,1018.1
2016-11-30T12:00:22.738Z,1018.2
2016-11-30T12:01:23.802Z,1018.1
2016-11-30T12:02:24.867Z,1018.2
2016-11-30T12:03:25.934Z,1018.2
2016-11-30T12:04:26.986Z,1018.2
2016-11-30T12:05:28.038Z,1018.2
2016-11-30T12:06:29.079Z,1018.2
2016-11-30T12:07:30.468Z,1018.2
2016-11-30T12:08:31.508Z,1018.1
2016-11-30T12:09:32.562Z,1018.1
2016-11-30T12:10:33.623Z,1018.1
2016-11-30T12:11:34.685Z,1018.1
2016-11-30T12:12:35.740Z,1018.1
2016-11-30T12:13:36.802Z,1018.1
2016-11-30T12:14:37.845Z,1018.1
2016-11-30T12:15:38.902Z,1018
2016-11-30T12:16:39.963Z,1017.9
2016-11-30T12:17:41.012Z,1017.8
2016-11-30T12:18:42.061Z,1017.9
2016-11-30T12:19:43.103Z,1017.8
2016-11-30T12:20:44.165Z,1017.9
2016-11-30T12:21:45.222Z,1017.9
2016-11-30T12:22:46.288Z,1017.8
2016-11-30T12:23:47.359Z,1017.9
2016-11-30T12:24:48.414Z,1017.8
2016-11-30T12:25:49.467Z,1017.9
2016-11-30T12:26:50.510Z,1017.8
2016-11-30T12:27:51.549Z,1017.8
2016-11-30T12:28:52.606Z,1017.8
2016-11-30T12:29:53.659Z,1017.8
2016-11-30T12:30:54.725Z,1017.8
2016-11-30T12:31:55.783Z,1017.8
2016-11-30T12:32:56.842Z,1017.7
2016-11-30T12:33:57.910Z,1017.7
2016-11-30T12:34:58.952Z,1017.7
2016-11-30T12:36:00.017Z,1017.7
2016-11-30T12:37:01.081Z,1017.8
2016-11-30T12:38:02.157Z,1017.8
2016-11-30T12:39:03.233Z,1017.7
2016-11-30T12:40:04.276Z,1017.6
2016-11-30T12:41:05.335Z,1017.6
2016-11-30T12:42:06.390Z,1017.6
2016-11-30T12:43:07.436Z,1017.5
2016-11-30T12:44:08.505Z,1017.6
2016-11-30T12:45:09.544Z,1017.6